• Join FlightAware (Why Join?)
  • Login
  • US Flag 
05:03PM EDT


 

Airport Tracker/Info


-or-


 

Live Flight TrackerFlight Track Log ✈ EJA982 ✈ 01-May-2013 ✈ KTUS - KSNA

Flight Track Log - Related Links

Times and Time Zones

All times are in EDT time to prevent confusion due to time zone crossing. See the EJA982 flight status page for this flight to view local times or setup timezone preferences in your user account.

Time Position Orientation Groundspeed Altitude Reporting Facility
EDT Latitude Longitude Course Direction KTS MPH feet Rate Location/Type
04:57PM 32.1175 -110.9411 316° Northwest 176 203 3,200  Level Albuquerque Center
04:58PM 32.1481 -110.9756 316° Northwest 192 221 5,300 2,940 Climbing Albuquerque Center
04:58PM 32.1600 -110.9950 306° West 195 224 6,500 2,760 Climbing Albuquerque Center
04:59PM 32.1822 -111.0294 307° West 206 237 8,200 2,100 Climbing Albuquerque Center
05:00PM 32.2172 -111.1081 298° West 253 291 10,200 1,860 Climbing Albuquerque Center
05:01PM 32.2633 -111.1964 302° West 306 352 12,100 2,040 Climbing Albuquerque Center
05:02PM 32.3111 -111.3011 298° West 348 400 14,500 2,340 Climbing Albuquerque Center
05:03PM 32.3622 -111.4069 300° West 366 421 17,000 2,280 Climbing Albuquerque Center
05:04PM 32.4242 -111.5372 299° West 375 432 19,300 1,920 Climbing Albuquerque Center
05:05PM 32.4783 -111.6525 299° West 392 451 21,000 1,680 Climbing Albuquerque Center
05:06PM 32.5422 -111.7636 304° West 404 465 22,800 1,740 Climbing Albuquerque Center
05:07PM 32.6108 -111.8750 306° West 414 476 24,600 1,680 Climbing Albuquerque Center
05:08PM 32.6797 -111.9878 306° West 419 482 26,300 1,980 Climbing Albuquerque Center
05:09PM 32.7489 -112.1042 305° West 427 491 28,800 1,560 Climbing Albuquerque Center
05:10PM 32.8192 -112.2181 306° West 427 491 29,600 1,080 Climbing Albuquerque Center
05:11PM 32.9072 -112.3675 305° West 447 514 31,100 1,140 Climbing Albuquerque Center
05:12PM 32.9822 -112.4928 306° West 463 533 32,000 420 Climbing Albuquerque Center
05:13PM 33.0614 -112.6247 306° West 481 554 32,000  Level Albuquerque Center
05:15PM 33.1419 -112.7586 306° West 494 568 32,000  Level Albuquerque Center
05:16PM 33.2222 -112.8942 305° West 500 575 32,000  Level Albuquerque Center
05:17PM 33.3019 -113.0283 305° West 500 575 32,000  Level Albuquerque Center
05:18PM 33.3972 -113.1900 305° West 500 575 32,000  Level Albuquerque Center
05:19PM 33.4758 -113.3242 305° West 496 571 32,000  Level Albuquerque Center
05:20PM 33.5550 -113.4594 305° West 496 571 32,000  Level Albuquerque Center
05:21PM 33.5961 -113.6164 287° West 501 577 32,000  Level Albuquerque Center
05:22PM 33.6153 -113.7889 278° West 498 573 32,000  Level Albuquerque Center
05:23PM 33.6331 -113.9528 277° West 497 572 32,000  Level Albuquerque Center
05:24PM 33.6494 -114.1183 277° West 499 574 32,000  Level Albuquerque Center
05:25PM 33.6706 -114.3050 278° West 500 575 32,000  Level Albuquerque Center
05:26PM 33.6856 -114.4708 276° West 501 577 32,000  Level Albuquerque Center
05:27PM 33.7050 -114.6417 278° West 500 575 32,000  Level Los Angeles Center
05:28PM 33.7217 -114.8072 277° West 501 577 32,000  Level Los Angeles Center
05:29PM 33.7414 -115.0053 277° West 500 575 32,000  Level Los Angeles Center
05:30PM 33.7569 -115.1714 276° West 503 579 32,000  Level Los Angeles Center
05:31PM 33.7725 -115.3372 276° West 502 578 32,000  Level Los Angeles Center
05:32PM 33.7881 -115.5025 277° West 502 578 32,000  Level Los Angeles Center
05:33PM 33.8039 -115.6683 277° West 500 575 32,000 -960 Level Los Angeles Center
05:34PM 33.8211 -115.8656 276° West 497 572 30,100 -1,800 Descending Los Angeles Center
05:35PM 33.8347 -116.0300 276° West 498 573 28,300 -1,680 Descending Los Angeles Center
05:36PM 33.8494 -116.1808 277° West 463 533 26,700 -1,440 Descending Los Angeles Center
05:37PM 33.8594 -116.3097 275° West 403 464 25,300 -1,680 Descending Los Angeles Center
05:38PM 33.8717 -116.4425 276° West 399 459 23,300 -2,760 Descending Los Angeles Center
05:39PM 33.8783 -116.5975 273° West 392 451 19,700 -3,300 Descending Los Angeles Center
05:40PM 33.8844 -116.7197 273° West 374 430 16,500 -2,820 Descending Los Angeles Center
05:41PM 33.8897 -116.8400 273° West 364 419 13,900 -1,920 Descending Los Angeles Center
05:43PM 33.8606 -117.0478 260° West 310 357 10,700 -1,800 Descending Los Angeles Center
05:45PM 33.8442 -117.1603 260° West 302 348 8,400 -1,320 Descending Los Angeles Center
05:46PM 33.8294 -117.2542 259° West 288 331 8,000 -300 Descending Los Angeles Center
05:47PM 33.8158 -117.3486 260° West 287 330 7,900 -60 Descending Los Angeles Center
05:48PM 33.7986 -117.4628 260° West 290 334 7,900 -240 Level Los Angeles Center
05:49PM 33.7864 -117.5486 260° West 270 311 7,400 -720 Descending Los Angeles Center
05:50PM 33.7839 -117.6481 268° West 256 295 6,500 -720 Descending Los Angeles Center
05:50PM 33.8000 -117.6833 299° West 239 275 6,300 -1,260 Descending Southern California TRACON
05:51PM 33.8167 -117.7500 287° West 238 274 4,600 -1,680 Descending Southern California TRACON
05:52PM 33.7667 -117.8000 220° Southwest 219 252 3,000 -1,620 Descending Southern California TRACON
05:53PM 33.7333 -117.8333 220° Southwest 149 171 1,400 -1,200 Descending Southern California TRACON
05:54PM 33.7000 -117.8500 203° Southwest 125 144 600 -840 Descending Southern California TRACON
05:57PM 33.6757 -117.8682 132° Southeast  Level Estimated
06:04PM 33.6757 -117.8682 132° Southeast  Level Estimated